Time;durP1;ratioP1;P1;durP2;ratioP2;P2;SDS_P1;SDS_P2;PMS_P1;PMS_P2;Temp;Humidity;BMP_temperature;BMP_pressure;BME280_temperature;BME280_humidity;BME280_pressure;Samples;Min_cycle;Max_cycle;Signal;HPM_P1;HPM_P2
2023/05/18 00:00:22;;;;;;;10.60;6.35;;;;;;;3.73;100.00;96404.94;1030166;28;20380;-74
2023/05/18 00:00:54;;;;;;;14.82;6.13;;;;;;;3.76;100.00;96415.72;1027709;28;20073;-73
2023/05/18 00:01:25;;;;;;;12.48;6.28;;;;;;;3.78;100.00;96412.91;1029297;28;20030;-73
2023/05/18 00:01:56;;;;;;;12.27;6.57;;;;;;;3.76;100.00;96410.50;1029495;28;20671;-73
2023/05/18 00:02:26;;;;;;;12.23;6.50;;;;;;;3.75;100.00;96415.91;1022299;28;20019;-73
2023/05/18 00:02:57;;;;;;;9.75;6.15;;;;;;;3.73;100.00;96410.13;1026029;28;20528;-72
2023/05/18 00:03:28;;;;;;;13.13;6.68;;;;;;;3.68;100.00;96402.94;1023990;28;20074;-73
2023/05/18 00:04:00;;;;;;;11.23;6.35;;;;;;;3.75;100.00;96408.91;1034376;28;20022;-72
2023/05/18 00:04:35;;;;;;;18.30;6.97;;;;;;;3.68;100.00;96404.72;1038014;28;20728;-73
2023/05/18 00:05:07;;;;;;;14.90;7.05;;;;;;;3.72;100.00;96408.50;1029956;28;20798;-72
2023/05/18 00:05:38;;;;;;;17.60;7.38;;;;;;;3.69;100.00;96404.53;1028785;28;20368;-73
2023/05/18 00:06:08;;;;;;;12.75;7.10;;;;;;;3.73;100.00;96410.13;1026752;28;20446;-74
2023/05/18 00:06:40;;;;;;;11.98;6.15;;;;;;;3.71;100.00;96412.91;1025840;28;20038;-73
2023/05/18 00:07:11;;;;;;;10.48;6.60;;;;;;;3.71;100.00;96412.13;1026473;28;20027;-73
2023/05/18 00:07:41;;;;;;;13.73;6.70;;;;;;;3.67;100.00;96400.56;1030393;28;20296;-73
2023/05/18 00:08:12;;;;;;;17.13;7.30;;;;;;;3.73;100.00;96410.13;1026392;28;20262;-73
2023/05/18 00:08:42;;;;;;;12.63;6.43;;;;;;;3.69;100.00;96409.72;1029859;28;20472;-72
2023/05/18 00:09:13;;;;;;;13.35;6.30;;;;;;;3.70;100.00;96410.53;1030076;28;20124;-74
2023/05/18 00:09:43;;;;;;;11.05;5.50;;;;;;;3.69;100.00;96406.31;1030104;28;20033;-73
2023/05/18 00:10:14;;;;;;;14.25;6.90;;;;;;;3.67;100.00;96406.53;1029780;28;20034;-73
2023/05/18 00:10:44;;;;;;;14.60;5.88;;;;;;;3.66;100.00;96404.16;1025851;28;20066;-72
2023/05/18 00:11:15;;;;;;;11.35;5.85;;;;;;;3.61;100.00;96391.75;1025231;28;20027;-73
2023/05/18 00:11:45;;;;;;;10.15;5.82;;;;;;;3.66;100.00;96406.75;1021952;28;20011;-73
2023/05/18 00:12:16;;;;;;;12.30;6.25;;;;;;;3.60;100.00;96395.38;1025960;28;20038;-72
2023/05/18 00:12:46;;;;;;;13.23;5.95;;;;;;;3.65;100.00;96407.72;1021730;28;20035;-73
2023/05/18 00:13:17;;;;;;;9.07;4.90;;;;;;;3.63;100.00;96404.56;1022057;28;20043;-73
2023/05/18 00:13:47;;;;;;;11.65;5.65;;;;;;;3.61;100.00;96404.75;1026018;28;20127;-73
2023/05/18 00:14:18;;;;;;;9.10;5.22;;;;;;;3.62;100.00;96401.16;1030103;28;20026;-73
2023/05/18 00:14:48;;;;;;;11.40;5.75;;;;;;;3.62;100.00;96402.94;1025933;28;20026;-73
2023/05/18 00:15:19;;;;;;;10.10;5.25;;;;;;;3.56;100.00;96398.56;1025829;28;20105;-73
2023/05/18 00:15:49;;;;;;;9.57;5.30;;;;;;;3.62;100.00;96403.75;1026255;28;20279;-73
2023/05/18 00:16:20;;;;;;;13.60;6.10;;;;;;;3.60;100.00;96400.56;1034102;28;20487;-73
2023/05/18 00:16:52;;;;;;;16.25;6.72;;;;;;;3.56;100.00;96394.19;1033901;28;20026;-73
2023/05/18 00:17:23;;;;;;;10.25;5.82;;;;;;;3.62;100.00;96392.56;1029505;28;20034;-73
2023/05/18 00:17:53;;;;;;;10.18;5.68;;;;;;;3.56;100.00;96393.38;1026339;28;20290;-73
2023/05/18 00:18:25;;;;;;;9.73;5.30;;;;;;;3.61;100.00;96394.34;1026256;28;20027;-73
2023/05/18 00:18:55;;;;;;;10.43;5.85;;;;;;;3.61;100.00;96399.56;1030020;28;20042;-73
2023/05/18 00:19:27;;;;;;;8.98;5.18;;;;;;;3.61;100.00;96390.97;1029393;28;20269;-73
2023/05/18 00:19:58;;;;;;;13.07;5.28;;;;;;;3.59;100.00;96398.97;1034026;28;20036;-73
2023/05/18 00:20:28;;;;;;;8.50;5.28;;;;;;;3.59;100.00;96393.78;1029911;28;20573;-74
2023/05/18 00:20:59;;;;;;;10.98;5.38;;;;;;;3.59;100.00;96396.38;1027922;28;20049;-74
2023/05/18 00:21:32;;;;;;;9.40;5.40;;;;;;;3.65;100.00;96397.34;1029270;28;20089;-74
2023/05/18 00:22:02;;;;;;;10.00;4.90;;;;;;;3.64;100.00;96396.56;1027033;28;20031;-73
2023/05/18 00:22:33;;;;;;;10.82;5.07;;;;;;;3.64;100.00;96400.94;1027086;28;20763;-73
2023/05/18 00:23:05;;;;;;;8.85;5.45;;;;;;;3.59;100.00;96392.97;1035228;28;20530;-73
2023/05/18 00:23:38;;;;;;;11.52;5.55;;;;;;;3.63;100.00;96399.38;1035021;28;20033;-73
2023/05/18 00:24:11;;;;;;;9.52;5.07;;;;;;;3.61;100.00;96383.19;1031223;28;20266;-73
2023/05/18 00:24:42;;;;;;;8.85;5.18;;;;;;;3.63;100.00;96399.38;1025857;28;20660;-72
2023/05/18 00:25:12;;;;;;;8.43;5.28;;;;;;;3.62;100.00;96397.75;1023669;28;20263;-73
2023/05/18 00:25:43;;;;;;;12.32;5.18;;;;;;;3.61;100.00;96396.16;1023620;28;20050;-74
2023/05/18 00:26:13;;;;;;;13.70;5.18;;;;;;;3.61;100.00;96399.56;1027107;28;20126;-74
2023/05/18 00:26:45;;;;;;;8.77;5.43;;;;;;;3.65;100.00;96397.34;1030852;28;20030;-73
2023/05/18 00:27:15;;;;;;;13.30;6.00;;;;;;;3.62;100.00;96387.38;1030677;28;20084;-73
2023/05/18 00:27:48;;;;;;;11.25;5.43;;;;;;;3.63;100.00;96394.19;1030566;28;20774;-73
2023/05/18 00:28:18;;;;;;;13.63;5.88;;;;;;;3.61;100.00;96391.75;1030760;28;20547;-73
2023/05/18 00:28:49;;;;;;;11.25;5.35;;;;;;;3.63;100.00;96394.19;1034921;28;20273;-72
2023/05/18 00:29:19;;;;;;;8.13;5.28;;;;;;;3.65;100.00;96392.16;1031304;28;20449;-73
2023/05/18 00:29:50;;;;;;;8.77;5.10;;;;;;;3.67;100.00;96392.75;1039075;28;20033;-73
2023/05/18 00:30:22;;;;;;;10.00;5.28;;;;;;;3.65;100.00;96395.53;1038861;28;20025;-73
2023/05/18 00:30:53;;;;;;;12.15;5.65;;;;;;;3.63;100.00;96394.97;1035090;28;20403;-73
2023/05/18 00:31:23;;;;;;;9.25;5.30;;;;;;;3.65;100.00;96389.56;1033729;28;20277;-73
2023/05/18 00:31:54;;;;;;;8.82;5.00;;;;;;;3.69;100.00;96388.16;1026675;28;20081;-73
2023/05/18 00:32:24;;;;;;;8.80;5.18;;;;;;;3.71;100.00;96396.53;1026577;28;20027;-73
2023/05/18 00:32:55;;;;;;;20.90;5.93;;;;;;;3.71;100.00;96386.94;1022679;28;20493;-73
2023/05/18 00:33:25;;;;;;;10.93;6.00;;;;;;;3.74;100.00;96390.94;1022893;28;20031;-73
2023/05/18 00:33:56;;;;;;;11.95;5.80;;;;;;;3.74;100.00;96391.75;1026825;28;20428;-73
2023/05/18 00:34:26;;;;;;;9.27;5.80;;;;;;;3.74;100.00;96396.94;1027803;28;20261;-73
2023/05/18 00:34:56;;;;;;;11.90;5.60;;;;;;;3.70;100.00;96381.97;1026562;28;20035;-73
2023/05/18 00:35:28;;;;;;;11.27;5.55;;;;;;;3.77;100.00;96391.34;1030683;28;20491;-74
2023/05/18 00:35:58;;;;;;;6.82;4.78;;;;;;;3.78;100.00;96392.94;1030962;28;20061;-73
2023/05/18 00:36:30;;;;;;;7.03;4.80;;;;;;;3.76;100.00;96388.97;1030826;28;20332;-73
2023/05/18 00:37:00;;;;;;;13.77;5.43;;;;;;;3.81;100.00;96393.53;1030191;28;20060;-73
2023/05/18 00:37:31;;;;;;;11.45;5.82;;;;;;;3.82;100.00;96395.91;1022627;29;20277;-73
2023/05/18 00:38:01;;;;;;;7.70;5.20;;;;;;;3.77;100.00;96391.34;1025087;28;20442;-74
2023/05/18 00:38:32;;;;;;;8.43;4.88;;;;;;;3.85;100.00;96395.50;1031157;28;20053;-73
2023/05/18 00:39:03;;;;;;;10.88;5.50;;;;;;;3.83;100.00;96389.75;1034695;28;20033;-73
2023/05/18 00:39:33;;;;;;;9.65;5.72;;;;;;;3.84;100.00;96385.34;1031961;28;20257;-72
2023/05/18 00:40:05;;;;;;;12.88;5.45;;;;;;;3.87;100.00;96396.09;1030465;28;20272;-73
2023/05/18 00:40:35;;;;;;;12.15;5.47;;;;;;;3.82;100.00;96382.13;1027127;28;20081;-73
2023/05/18 00:41:06;;;;;;;9.23;5.97;;;;;;;3.72;100.00;96373.00;1018114;28;20271;-73
2023/05/18 00:41:37;;;;;;;11.18;5.00;;;;;;;3.89;100.00;96395.91;1026903;28;20022;-73
2023/05/18 00:42:07;;;;;;;11.40;5.35;;;;;;;3.89;100.00;96399.31;1026544;28;20027;-73
2023/05/18 00:42:38;;;;;;;9.02;5.22;;;;;;;3.89;100.00;96395.91;1027116;28;20321;-73
2023/05/18 00:43:09;;;;;;;13.93;5.03;;;;;;;3.90;100.00;96390.50;1038585;28;20021;-72
2023/05/18 00:43:40;;;;;;;9.05;5.03;;;;;;;3.94;100.00;96398.69;1034731;28;20033;-73
2023/05/18 00:44:10;;;;;;;6.85;4.65;;;;;;;3.88;100.00;96387.31;1034601;28;20081;-73
2023/05/18 00:44:41;;;;;;;9.13;4.90;;;;;;;3.95;100.00;96395.88;1026479;28;20269;-73
2023/05/18 00:45:11;;;;;;;11.00;5.65;;;;;;;3.90;100.00;96385.31;1026762;28;20460;-74
2023/05/18 00:45:42;;;;;;;9.15;5.47;;;;;;;3.95;100.00;96393.28;1022867;28;20035;-72
2023/05/18 00:46:12;;;;;;;9.13;5.25;;;;;;;3.96;100.00;96394.09;1022546;28;20034;-72
2023/05/18 00:46:43;;;;;;;10.32;5.25;;;;;;;3.89;100.00;96388.94;1030698;28;20023;-73
2023/05/18 00:47:14;;;;;;;10.43;5.13;;;;;;;3.95;100.00;96395.88;1026794;28;20026;-73
2023/05/18 00:47:46;;;;;;;11.90;5.30;;;;;;;3.94;100.00;96391.69;1027037;28;20382;-73
2023/05/18 00:48:16;;;;;;;9.30;4.80;;;;;;;3.90;100.00;96387.13;1030030;28;20698;-73
2023/05/18 00:48:47;;;;;;;9.60;4.95;;;;;;;3.92;100.00;96387.69;1026686;28;20262;-73
2023/05/18 00:49:17;;;;;;;8.55;5.32;;;;;;;3.91;100.00;96384.31;1026723;28;20090;-72
2023/05/18 00:49:48;;;;;;;8.90;5.28;;;;;;;3.97;100.00;96395.69;1022518;29;20259;-74
2023/05/18 00:50:18;;;;;;;9.95;4.75;;;;;;;3.97;100.00;96393.88;1014969;29;20020;-73
2023/05/18 00:50:49;;;;;;;9.45;5.22;;;;;;;3.94;100.00;96385.72;1022917;28;20019;-72
2023/05/18 00:51:22;;;;;;;10.60;5.22;;;;;;;3.95;100.00;96393.28;1022037;28;20609;-73
2023/05/18 00:51:52;;;;;;;9.68;5.35;;;;;;;3.97;100.00;96395.69;1031043;28;20638;-73
2023/05/18 00:52:23;;;;;;;10.55;4.88;;;;;;;3.97;100.00;96390.50;1038624;28;20257;-74
2023/05/18 00:52:53;;;;;;;10.93;5.28;;;;;;;3.95;100.00;96393.28;1039409;28;20561;-73
2023/05/18 00:53:24;;;;;;;12.07;5.40;;;;;;;3.93;100.00;96387.50;1034595;28;20018;-73
2023/05/18 00:53:55;;;;;;;9.70;4.43;;;;;;;3.93;100.00;96387.50;1030604;28;20124;-73
2023/05/18 00:54:25;;;;;;;10.90;4.97;;;;;;;3.96;100.00;96392.31;1030494;28;20694;-73
2023/05/18 00:54:57;;;;;;;11.60;5.82;;;;;;;3.97;100.00;96393.09;1026518;28;20149;-73
2023/05/18 00:55:27;;;;;;;8.35;5.10;;;;;;;3.96;100.00;96389.69;1026654;28;20039;-73
2023/05/18 00:55:58;;;;;;;12.73;4.97;;;;;;;3.94;100.00;96386.50;1022609;29;20275;-73
2023/05/18 00:56:32;;;;;;;9.30;5.88;;;;;;;3.97;100.00;96388.69;1023017;28;20099;-73
2023/05/18 00:57:04;;;;;;;11.25;4.93;;;;;;;3.98;100.00;96387.69;1026787;28;20037;-73
2023/05/18 00:57:35;;;;;;;10.73;4.82;;;;;;;3.97;100.00;96391.28;1024152;28;20374;-74
2023/05/18 00:58:05;;;;;;;10.10;5.68;;;;;;;3.92;100.00;96385.94;1030691;28;20261;-73
2023/05/18 00:58:37;;;;;;;9.63;5.15;;;;;;;3.93;100.00;96379.72;1027255;28;20752;-73
2023/05/18 00:59:11;;;;;;;14.55;5.75;;;;;;;3.97;100.00;96380.91;1027072;28;20026;-73
2023/05/18 00:59:41;;;;;;;9.85;5.00;;;;;;;3.96;100.00;96384.50;1034677;28;20271;-73
2023/05/18 01:00:12;;;;;;;10.10;5.18;;;;;;;3.97;100.00;96380.91;1038765;28;20611;-73
2023/05/18 01:00:43;;;;;;;10.55;5.38;;;;;;;3.93;100.00;96373.75;1035102;28;20100;-72
2023/05/18 01:01:16;;;;;;;12.48;5.93;;;;;;;3.98;100.00;96376.50;1021934;29;20259;-73
2023/05/18 01:01:47;;;;;;;8.38;4.93;;;;;;;3.95;100.00;96371.72;1020417;28;20118;-73
2023/05/18 01:02:19;;;;;;;12.18;5.30;;;;;;;3.98;100.00;96377.28;1018673;29;20271;-72
2023/05/18 01:02:49;;;;;;;10.00;5.38;;;;;;;3.99;100.00;96378.09;1022458;29;20774;-73
2023/05/18 01:03:20;;;;;;;8.43;4.80;;;;;;;4.00;100.00;96379.72;1023571;28;20271;-73
2023/05/18 01:03:55;;;;;;;10.52;5.28;;;;;;;3.99;100.00;96376.31;1030621;28;20574;-73
2023/05/18 01:04:26;;;;;;;8.75;5.28;;;;;;;4.00;100.00;96377.09;1027291;28;20165;-73
2023/05/18 01:04:58;;;;;;;13.07;5.88;;;;;;;4.00;100.00;96380.50;1023130;28;20302;-73
2023/05/18 01:05:29;;;;;;;8.73;5.13;;;;;;;4.00;100.00;96384.91;1023701;28;20687;-73
2023/05/18 01:06:00;;;;;;;11.52;4.95;;;;;;;4.01;100.00;96381.28;1027075;28;20740;-73
2023/05/18 01:06:31;;;;;;;9.05;5.57;;;;;;;3.99;100.00;96383.28;1026991;28;20117;-73
2023/05/18 01:07:05;;;;;;;9.10;4.70;;;;;;;4.01;100.00;96382.09;1026749;28;20066;-73
2023/05/18 01:07:42;;;;;;;10.07;5.70;;;;;;;4.02;100.00;96382.88;1026652;28;20377;-74
2023/05/18 01:08:13;;;;;;;11.00;4.80;;;;;;;4.01;100.00;96382.09;1020284;29;20271;-73
2023/05/18 01:08:43;;;;;;;10.40;5.75;;;;;;;4.02;100.00;96385.47;1020112;29;20278;-73
2023/05/18 01:09:15;;;;;;;12.82;5.95;;;;;;;3.99;100.00;96373.72;1026490;28;20038;-73
2023/05/18 01:09:45;;;;;;;8.15;4.63;;;;;;;4.03;100.00;96379.28;1034770;28;20111;-73
2023/05/18 01:10:17;;;;;;;9.32;4.70;;;;;;;4.04;100.00;96383.47;1030522;28;20834;-73
2023/05/18 01:11:01;;;;;;;16.20;5.50;;;;;;;4.06;100.00;96385.84;1026951;28;20117;-74
2023/05/18 01:11:56;;;;;;;8.95;5.20;;;;;;;4.05;100.00;96376.47;1032743;28;20332;-72
2023/05/18 01:12:36;;;;;;;10.15;5.40;;;;;;;4.01;100.00;96374.28;1027798;28;20829;-72
2023/05/18 01:13:12;;;;;;;;;;;;;;;4.08;100.00;96382.06;1023102;28;20271;-73
2023/05/18 01:14:01;;;;;;;12.10;4.45;;;;;;;4.08;100.00;96382.06;1030392;28;19913;-73
2023/05/18 01:14:44;;;;;;;10.73;4.93;;;;;;;4.07;100.00;96384.88;1026680;28;20266;-73
2023/05/18 01:15:17;;;;;;;12.93;5.43;;;;;;;4.04;100.00;96373.09;1027143;28;20368;-72
2023/05/18 01:15:47;;;;;;;11.40;5.53;;;;;;;3.99;100.00;96373.72;1018564;29;20275;-73
2023/05/18 01:16:22;;;;;;;9.25;5.38;;;;;;;3.98;100.00;96372.09;1022669;29;20330;-73
2023/05/18 01:17:01;;;;;;;13.80;5.07;;;;;;;4.05;100.00;96379.88;1026719;28;20491;-73
2023/05/18 01:18:03;;;;;;;11.90;5.10;;;;;;;4.03;100.00;96379.28;1032235;28;20759;-73
2023/05/18 01:18:44;;;;;;;11.85;6.25;;;;;;;3.99;100.00;96378.09;1029916;28;20258;-73
2023/05/18 01:19:43;;;;;;;12.77;5.18;;;;;;;4.05;100.00;96376.47;1030296;28;20272;-73
2023/05/18 01:20:38;;;;;;;11.95;4.78;;;;;;;4.05;100.00;96384.28;1032126;28;20301;-73
2023/05/18 01:21:41;;;;;;;10.85;5.28;;;;;;;4.05;100.00;96376.47;1035263;28;20807;-72
2023/05/18 01:22:21;;;;;;;11.32;4.68;;;;;;;4.05;100.00;96379.09;1034505;28;20335;-73
2023/05/18 01:23:28;;;;;;;17.23;5.78;;;;;;;4.05;100.00;96376.47;1030325;28;20292;-73
2023/05/18 01:24:24;;;;;;;9.57;4.90;;;;;;;3.99;100.00;96368.53;1024915;28;20255;-73
2023/05/18 01:25:13;;;;;;;10.40;4.95;;;;;;;3.96;100.00;96368.94;1034690;28;20268;-73
2023/05/18 01:26:05;;;;;;;11.07;5.28;;;;;;;3.99;100.00;96371.13;1030423;28;20655;-73
2023/05/18 01:26:38;;;;;;;9.60;4.72;;;;;;;3.98;100.00;96371.31;1023905;28;20410;-74
2023/05/18 01:27:08;;;;;;;13.52;5.07;;;;;;;3.79;100.00;96336.66;1018606;29;20338;-73
2023/05/18 01:27:41;;;;;;;9.48;4.95;;;;;;;3.99;100.00;96363.34;1026173;28;20345;-72
2023/05/18 01:28:13;;;;;;;9.00;4.78;;;;;;;3.85;100.00;96346.19;1034608;28;20030;-74
2023/05/18 01:28:45;;;;;;;8.90;5.00;;;;;;;4.04;100.00;96380.09;1038641;28;20302;-72
2023/05/18 01:29:15;;;;;;;13.90;5.15;;;;;;;4.03;100.00;96368.91;1039325;28;20769;-73
2023/05/18 01:29:46;;;;;;;7.72;4.82;;;;;;;4.00;100.00;96367.50;1018427;28;20283;-72
2023/05/18 01:30:17;;;;;;;10.65;5.22;;;;;;;4.04;100.00;96365.31;1030543;28;20042;-73
2023/05/18 01:30:47;;;;;;;8.10;4.10;;;;;;;3.99;100.00;96367.69;1034597;28;20116;-74
2023/05/18 01:31:17;;;;;;;10.75;5.05;;;;;;;3.97;100.00;96360.13;1021771;29;20372;-72
2023/05/18 01:31:48;;;;;;;7.70;4.40;;;;;;;4.04;100.00;96370.50;1030587;28;20030;-73
2023/05/18 01:32:19;;;;;;;6.43;4.53;;;;;;;4.04;100.00;96369.69;1030616;28;20053;-72
2023/05/18 01:32:49;;;;;;;8.90;5.03;;;;;;;3.99;100.00;96365.94;1030414;28;20018;-72
2023/05/18 01:33:20;;;;;;;7.60;3.72;;;;;;;4.04;100.00;96367.09;1025785;28;20266;-72
2023/05/18 01:33:50;;;;;;;10.25;4.97;;;;;;;4.06;100.00;96368.50;1026410;28;20127;-73
2023/05/18 01:34:21;;;;;;;7.90;4.53;;;;;;;4.06;100.00;96367.69;1026690;28;20024;-74
2023/05/18 01:34:51;;;;;;;8.40;4.60;;;;;;;4.04;100.00;96364.50;1030698;28;20058;-73
2023/05/18 01:35:22;;;;;;;8.23;4.47;;;;;;;4.07;100.00;96371.88;1030587;28;20021;-73
2023/05/18 01:35:52;;;;;;;11.48;4.90;;;;;;;4.06;100.00;96365.09;1030547;28;20217;-72
2023/05/18 01:36:23;;;;;;;8.05;4.22;;;;;;;3.89;100.00;96342.19;1030323;28;20057;-72
2023/05/18 01:36:53;;;;;;;10.23;4.40;;;;;;;4.03;100.00;96355.13;1034617;28;20038;-73
2023/05/18 01:37:24;;;;;;;7.20;4.68;;;;;;;4.08;100.00;96368.28;1030515;28;20019;-73
2023/05/18 01:37:54;;;;;;;14.82;4.70;;;;;;;4.05;100.00;96364.28;1030323;28;20546;-73
2023/05/18 01:38:26;;;;;;;12.52;5.20;;;;;;;4.06;100.00;96368.50;1030270;28;20026;-72
2023/05/18 01:39:00;;;;;;;7.80;4.60;;;;;;;4.04;100.00;96364.50;1030186;28;20032;-72
2023/05/18 01:39:30;;;;;;;8.27;5.07;;;;;;;4.02;100.00;96359.50;1028454;28;20793;-73
2023/05/18 01:40:01;;;;;;;10.02;4.63;;;;;;;4.02;100.00;96359.50;1026324;28;20273;-73
2023/05/18 01:40:36;;;;;;;14.57;4.88;;;;;;;3.98;100.00;96355.72;1026554;28;20026;-73
2023/05/18 01:41:15;;;;;;;9.18;5.13;;;;;;;4.03;100.00;96362.94;1029633;28;20015;-72
2023/05/18 01:41:55;;;;;;;10.25;4.82;;;;;;;4.01;100.00;96363.91;1030996;28;20872;-73
2023/05/18 01:42:25;;;;;;;10.55;4.88;;;;;;;4.00;100.00;96361.53;1026329;28;20613;-73
2023/05/18 01:42:57;;;;;;;7.38;4.90;;;;;;;3.98;100.00;96359.13;1032807;28;20022;-73
2023/05/18 01:43:32;;;;;;;7.63;4.55;;;;;;;4.00;100.00;96370.09;1030489;28;20558;-73
2023/05/18 01:44:12;;;;;;;11.82;4.65;;;;;;;4.00;100.00;96357.13;1034552;28;20260;-73
2023/05/18 01:44:45;;;;;;;8.07;4.70;;;;;;;4.01;100.00;96360.53;1024243;28;20771;-73
2023/05/18 01:45:20;;;;;;;9.25;4.63;;;;;;;3.99;100.00;96363.34;1032820;28;20027;-73
2023/05/18 01:45:52;;;;;;;8.45;4.53;;;;;;;3.97;100.00;96359.34;1030430;28;20297;-73
2023/05/18 01:46:54;;;;;;;12.40;5.32;;;;;;;3.93;100.00;96355.56;1026084;28;20266;-73
2023/05/18 01:47:24;;;;;;;14.02;4.95;;;;;;;3.96;100.00;96355.94;1034784;28;20260;-73
2023/05/18 01:47:56;;;;;;;7.57;4.60;;;;;;;3.98;100.00;96355.72;1034450;28;20279;-73
2023/05/18 01:48:26;;;;;;;17.95;4.85;;;;;;;3.97;100.00;96354.94;1026291;28;20027;-72
2023/05/18 01:49:00;;;;;;;9.82;4.90;;;;;;;3.97;100.00;96361.94;1014544;29;20630;-73
2023/05/18 01:49:34;;;;;;;10.55;4.72;;;;;;;3.96;100.00;96355.94;1025403;28;20015;-73
2023/05/18 01:50:16;;;;;;;10.27;4.97;;;;;;;3.94;100.00;96350.16;1026292;28;20278;-73
2023/05/18 01:50:47;;;;;;;10.98;5.60;;;;;;;3.90;100.00;96346.38;1034435;28;20281;-72
2023/05/18 01:51:17;;;;;;;11.40;5.32;;;;;;;3.94;100.00;96357.94;1029723;28;20313;-73
2023/05/18 01:51:48;;;;;;;7.07;4.72;;;;;;;3.95;100.00;96350.94;1022309;28;20027;-73
2023/05/18 01:52:22;;;;;;;8.85;4.25;;;;;;;3.90;100.00;96343.78;1022582;29;20027;-72
2023/05/18 01:53:09;;;;;;;6.60;4.80;;;;;;;3.88;100.00;96340.59;1026385;28;20023;-74
2023/05/18 01:53:44;;;;;;;14.25;5.45;;;;;;;3.92;100.00;96346.16;1026507;28;20273;-73
2023/05/18 01:54:15;;;;;;;8.45;4.50;;;;;;;3.94;100.00;96355.34;1030494;28;20348;-74
2023/05/18 01:54:49;;;;;;;11.15;5.85;;;;;;;3.92;100.00;96347.00;1021820;29;20283;-72
2023/05/18 01:55:19;;;;;;;13.48;5.75;;;;;;;3.95;100.00;96349.16;1018536;29;20365;-73
2023/05/18 01:55:51;;;;;;;8.63;4.93;;;;;;;3.89;100.00;96344.81;1014555;29;20260;-74
2023/05/18 01:56:22;;;;;;;12.45;4.93;;;;;;;3.89;100.00;96339.59;1022499;29;20023;-72
2023/05/18 01:56:53;;;;;;;12.25;4.68;;;;;;;3.96;100.00;96352.56;1025853;28;20278;-73
2023/05/18 01:57:26;;;;;;;8.25;4.38;;;;;;;3.92;100.00;96349.59;1022534;29;20054;-73
2023/05/18 01:57:56;;;;;;;10.73;4.68;;;;;;;3.95;100.00;96350.94;1022506;29;20271;-73
2023/05/18 01:58:27;;;;;;;10.60;4.78;;;;;;;3.93;100.00;96345.19;1026388;28;20286;-73
2023/05/18 01:58:58;;;;;;;10.95;4.88;;;;;;;3.92;100.00;96347.00;1030435;28;20018;-74
2023/05/18 01:59:28;;;;;;;8.35;4.63;;;;;;;3.95;100.00;96345.75;1026561;28;20262;-73
2023/05/18 01:59:58;;;;;;;10.57;5.28;;;;;;;3.94;100.00;96344.97;1030335;28;20468;-72
2023/05/18 02:00:29;;;;;;;11.32;4.97;;;;;;;3.92;100.00;96341.78;1030505;28;20022;-73
2023/05/18 02:00:59;;;;;;;9.73;5.50;;;;;;;3.93;100.00;96343.38;1029888;28;20014;-71
2023/05/18 02:01:30;;;;;;;12.93;5.25;;;;;;;3.89;100.00;96337.00;1030281;28;20447;-74
2023/05/18 02:02:01;;;;;;;12.55;5.20;;;;;;;3.94;100.00;96344.16;1022531;29;20027;-72
2023/05/18 02:02:31;;;;;;;8.80;4.57;;;;;;;3.95;100.00;96340.56;1022297;28;20368;-73
2023/05/18 02:03:02;;;;;;;9.18;4.85;;;;;;;3.89;100.00;96334.41;1022524;28;20019;-72
2023/05/18 02:03:32;;;;;;;16.85;5.80;;;;;;;3.91;100.00;96339.38;1032734;28;20037;-73
2023/05/18 02:04:07;;;;;;;10.02;4.70;;;;;;;3.88;100.00;96335.41;1034537;28;20035;-74
2023/05/18 02:04:38;;;;;;;11.80;4.63;;;;;;;3.94;100.00;96350.16;1033827;28;20651;-73
2023/05/18 02:05:11;;;;;;;10.95;4.90;;;;;;;3.93;100.00;96342.59;1030138;28;20312;-73
2023/05/18 02:05:41;;;;;;;7.57;5.22;;;;;;;3.93;100.00;96342.59;1026417;28;20066;-72
2023/05/18 02:06:12;;;;;;;11.70;4.65;;;;;;;3.94;100.00;96344.16;1014594;29;20702;-73
2023/05/18 02:06:42;;;;;;;9.07;4.78;;;;;;;3.92;100.00;96344.38;1022332;28;20015;-73
2023/05/18 02:07:12;;;;;;;11.82;5.28;;;;;;;3.90;100.00;96341.19;1026784;28;20614;-72
2023/05/18 02:07:46;;;;;;;8.52;4.65;;;;;;;3.90;100.00;96343.78;1026365;28;20758;-73
2023/05/18 02:08:16;;;;;;;9.95;4.35;;;;;;;3.88;100.00;96345.78;1026508;28;20575;-73
2023/05/18 02:08:47;;;;;;;11.07;4.32;;;;;;;3.89;100.00;96342.19;1022356;28;20270;-74
2023/05/18 02:09:17;;;;;;;11.20;5.15;;;;;;;3.88;100.00;96338.00;1030821;28;20018;-71
2023/05/18 02:09:48;;;;;;;9.50;5.97;;;;;;;3.89;100.00;96338.78;1030509;28;20038;-72
2023/05/18 02:10:18;;;;;;;10.43;5.10;;;;;;;3.87;100.00;96341.59;1028602;28;20203;-74
2023/05/18 02:10:49;;;;;;;14.65;4.93;;;;;;;3.86;100.00;96341.81;1022514;29;20059;-74
2023/05/18 02:11:20;;;;;;;12.93;5.63;;;;;;;3.87;100.00;96339.00;1021664;28;20034;-72
2023/05/18 02:11:50;;;;;;;12.18;5.57;;;;;;;3.87;100.00;96339.00;1026611;28;20539;-73
2023/05/18 02:12:21;;;;;;;10.00;5.05;;;;;;;3.87;100.00;96339.00;1030560;28;20256;-73
2023/05/18 02:12:52;;;;;;;10.63;5.50;;;;;;;3.88;100.00;96340.59;1034260;28;20402;-73
2023/05/18 02:13:23;;;;;;;10.95;4.88;;;;;;;3.86;100.00;96340.00;1030246;28;20074;-73
2023/05/18 02:13:53;;;;;;;10.45;4.55;;;;;;;3.86;100.00;96340.00;1030047;28;21088;-73
2023/05/18 02:14:23;;;;;;;13.43;4.82;;;;;;;3.87;100.00;96344.19;1030445;28;20365;-72
2023/05/18 02:14:54;;;;;;;12.43;5.40;;;;;;;3.85;100.00;96338.41;1026408;28;20109;-73
2023/05/18 02:15:25;;;;;;;17.40;4.78;;;;;;;3.84;100.00;96341.22;1026157;28;20050;-74
2023/05/18 02:15:55;;;;;;;10.88;5.18;;;;;;;3.81;100.00;96336.44;1030350;28;20033;-73
2023/05/18 02:16:26;;;;;;;8.32;4.55;;;;;;;3.86;100.00;96337.41;1026700;28;20045;-73
2023/05/18 02:16:56;;;;;;;6.93;4.57;;;;;;;3.84;100.00;96333.44;1026305;28;20041;-74
2023/05/18 02:17:27;;;;;;;13.95;5.00;;;;;;;3.81;100.00;96329.44;1023413;28;20054;-72
2023/05/18 02:17:58;;;;;;;7.82;4.88;;;;;;;3.84;100.00;96336.81;1034181;28;20088;-73
2023/05/18 02:18:28;;;;;;;8.55;4.60;;;;;;;3.74;100.00;96324.25;1030372;28;20033;-73
2023/05/18 02:18:59;;;;;;;8.30;4.40;;;;;;;3.82;100.00;96338.00;1018360;28;20038;-74
2023/05/18 02:19:29;;;;;;;8.02;4.55;;;;;;;3.84;100.00;96336.03;1022312;28;20166;-73
2023/05/18 02:20:00;;;;;;;10.10;5.35;;;;;;;3.86;100.00;96340.00;1018411;28;20042;-73
2023/05/18 02:20:32;;;;;;;7.80;4.93;;;;;;;3.84;100.00;96336.03;1026420;28;20038;-75
2023/05/18 02:21:03;;;;;;;15.57;7.53;;;;;;;3.85;100.00;96340.19;1026511;28;20030;-73
2023/05/18 02:21:34;;;;;;;12.35;5.40;;;;;;;3.86;100.00;96327.03;1026404;28;20258;-73
2023/05/18 02:22:05;;;;;;;12.95;4.72;;;;;;;3.79;100.00;96331.44;1031580;28;20031;-73
2023/05/18 02:22:36;;;;;;;9.25;5.20;;;;;;;3.85;100.00;96335.81;1039332;28;20268;-73
2023/05/18 02:23:06;;;;;;;11.27;5.05;;;;;;;3.84;100.00;96331.63;1037499;28;20260;-72
2023/05/18 02:23:37;;;;;;;7.88;4.38;;;;;;;3.83;100.00;96337.81;1035012;28;20038;-72
2023/05/18 02:24:07;;;;;;;10.02;4.65;;;;;;;3.78;100.00;96324.66;1035065;28;20093;-73
2023/05/18 02:24:37;;;;;;;8.13;4.40;;;;;;;3.82;100.00;96336.22;1035459;28;20468;-73
2023/05/18 02:25:08;;;;;;;7.75;4.78;;;;;;;3.83;100.00;96337.03;1039196;28;20502;-72
2023/05/18 02:25:39;;;;;;;9.75;4.75;;;;;;;3.83;100.00;96337.81;1034710;28;20379;-73
2023/05/18 02:26:10;;;;;;;11.40;4.90;;;;;;;3.77;100.00;96331.66;1033212;28;20026;-72
2023/05/18 02:26:40;;;;;;;9.80;4.40;;;;;;;3.82;100.00;96330.22;1034651;28;20496;-74
2023/05/18 02:27:14;;;;;;;8.27;4.80;;;;;;;3.77;100.00;96336.03;1026974;28;20019;-73
2023/05/18 02:27:44;;;;;;;8.38;4.60;;;;;;;3.80;100.00;96338.22;1023170;28;20182;-72
2023/05/18 02:28:15;;;;;;;10.93;5.03;;;;;;;3.80;100.00;96332.25;1026294;28;20266;-73
2023/05/18 02:28:45;;;;;;;11.80;5.18;;;;;;;3.73;100.00;96327.06;1023777;28;20023;-73
2023/05/18 02:29:16;;;;;;;10.23;4.95;;;;;;;3.78;100.00;96330.63;1023300;28;20027;-73
2023/05/18 02:29:46;;;;;;;11.90;5.28;;;;;;;3.76;100.00;96331.88;1026733;28;20711;-73
2023/05/18 02:30:17;;;;;;;9.20;4.32;;;;;;;3.72;100.00;96322.88;1014961;29;20024;-73
2023/05/18 02:30:47;;;;;;;9.75;4.97;;;;;;;3.76;100.00;96327.47;1019038;29;20028;-72
2023/05/18 02:31:18;;;;;;;12.30;5.35;;;;;;;3.75;100.00;96336.22;1019035;29;20031;-72
2023/05/18 02:31:48;;;;;;;10.35;5.15;;;;;;;3.76;100.00;96330.06;1026881;28;20516;-73
2023/05/18 02:32:19;;;;;;;9.68;4.70;;;;;;;3.71;100.00;96323.88;1031097;28;20364;-74